createdAt,value
2023-05-13T00:00:58.500Z,100.00
2023-05-13T00:03:28.768Z,100.00
2023-05-13T00:05:56.995Z,100.00
2023-05-13T00:08:24.884Z,100.00
2023-05-13T00:10:52.933Z,100.00
2023-05-13T00:13:20.768Z,100.00
2023-05-13T00:15:48.720Z,100.00
2023-05-13T00:18:16.820Z,99.81
2023-05-13T00:20:46.110Z,98.35
2023-05-13T00:23:14.574Z,94.76
2023-05-13T00:25:44.342Z,94.91
2023-05-13T00:28:14.074Z,93.79
2023-05-13T00:30:43.844Z,90.30
2023-05-13T00:33:11.918Z,87.23
2023-05-13T00:35:39.785Z,91.16
2023-05-13T00:38:09.251Z,87.64
2023-05-13T00:40:39.635Z,86.78
2023-05-13T00:43:07.790Z,88.49
2023-05-13T00:45:38.023Z,87.82
2023-05-13T00:48:07.682Z,88.41
2023-05-13T00:50:35.904Z,82.46
2023-05-13T00:53:05.022Z,84.45
2023-05-13T00:55:34.361Z,88.49
2023-05-13T00:58:02.371Z,90.04
2023-05-13T01:00:31.345Z,92.87
2023-05-13T01:03:10.356Z,91.48
2023-05-13T01:05:46.489Z,88.22
2023-05-13T01:08:22.697Z,87.18
2023-05-13T01:10:58.756Z,88.36
2023-05-13T01:13:29.814Z,89.06
2023-05-13T01:16:02.701Z,88.93
2023-05-13T01:18:35.086Z,90.86
2023-05-13T01:21:04.713Z,93.31
2023-05-13T01:23:33.987Z,95.26
2023-05-13T01:26:02.087Z,95.93
2023-05-13T01:28:30.233Z,93.79
2023-05-13T01:30:59.129Z,90.61
2023-05-13T01:33:27.630Z,95.95
2023-05-13T01:35:56.156Z,96.55
2023-05-13T01:38:25.617Z,96.24
2023-05-13T01:40:56.066Z,98.50
2023-05-13T01:43:23.974Z,97.15
2023-05-13T01:45:51.934Z,100.00
2023-05-13T01:48:19.887Z,99.09
2023-05-13T01:50:47.801Z,99.76
2023-05-13T01:53:15.847Z,93.85
2023-05-13T01:55:43.778Z,95.41
2023-05-13T01:58:12.986Z,98.89
2023-05-13T02:00:40.871Z,97.76
2023-05-13T02:03:08.754Z,96.55
2023-05-13T02:05:36.673Z,93.97
2023-05-13T02:08:04.635Z,98.84
2023-05-13T02:10:32.511Z,97.71
2023-05-13T02:13:00.328Z,95.91
2023-05-13T02:15:29.534Z,97.00
2023-05-13T02:17:57.453Z,96.81
2023-05-13T02:20:26.442Z,99.12
2023-05-13T02:22:54.372Z,98.08
2023-05-13T02:25:22.592Z,97.63
2023-05-13T02:27:51.307Z,97.50
2023-05-13T02:30:19.331Z,95.65
2023-05-13T02:32:48.845Z,94.08
2023-05-13T02:35:17.041Z,93.87
2023-05-13T02:37:44.884Z,94.54
2023-05-13T02:40:13.546Z,95.51
2023-05-13T02:42:41.546Z,96.92
2023-05-13T02:45:10.643Z,100.00
2023-05-13T02:47:39.365Z,99.87
2023-05-13T02:50:10.254Z,100.00
2023-05-13T02:52:39.095Z,100.00
2023-05-13T02:55:08.851Z,100.00
2023-05-13T02:57:37.824Z,100.00
2023-05-13T03:00:07.141Z,100.00
2023-05-13T03:02:36.071Z,100.00
2023-05-13T03:05:04.047Z,100.00
2023-05-13T03:07:33.255Z,100.00
2023-05-13T03:10:01.085Z,100.00
2023-05-13T03:12:29.030Z,100.00
2023-05-13T03:14:56.864Z,100.00
2023-05-13T03:17:25.470Z,100.00
2023-05-13T03:19:53.424Z,100.00
2023-05-13T03:22:21.301Z,100.00
2023-05-13T03:24:50.555Z,100.00
2023-05-13T03:27:18.595Z,100.00
2023-05-13T03:29:46.470Z,100.00
2023-05-13T03:32:14.339Z,100.00
2023-05-13T03:34:42.356Z,100.00
2023-05-13T03:37:10.237Z,100.00
2023-05-13T03:39:38.068Z,100.00
2023-05-13T03:42:08.165Z,100.00
2023-05-13T03:44:36.056Z,100.00
2023-05-13T03:47:04.069Z,100.00
2023-05-13T03:49:32.136Z,100.00
2023-05-13T03:52:00.051Z,100.00
2023-05-13T03:54:27.905Z,100.00
2023-05-13T03:56:55.846Z,100.00
2023-05-13T03:59:25.096Z,100.00
2023-05-13T04:01:53.056Z,100.00
2023-05-13T04:04:20.971Z,100.00
2023-05-13T04:06:48.817Z,100.00
2023-05-13T04:09:16.750Z,100.00
2023-05-13T04:11:44.756Z,100.00
2023-05-13T04:14:12.599Z,100.00
2023-05-13T04:16:41.897Z,100.00
2023-05-13T04:19:09.950Z,100.00
2023-05-13T04:21:37.796Z,100.00
2023-05-13T04:24:06.357Z,100.00
2023-05-13T04:26:34.251Z,100.00
2023-05-13T04:29:02.072Z,100.00
2023-05-13T04:31:30.532Z,100.00
2023-05-13T04:33:59.747Z,100.00
2023-05-13T04:36:27.785Z,100.00
2023-05-13T04:38:55.715Z,100.00
2023-05-13T04:41:23.651Z,100.00
2023-05-13T04:43:51.548Z,100.00
2023-05-13T04:46:19.447Z,100.00
2023-05-13T04:48:48.428Z,100.00
2023-05-13T04:51:18.341Z,100.00
2023-05-13T04:53:46.639Z,100.00
2023-05-13T04:56:14.529Z,100.00
2023-05-13T04:58:42.398Z,100.00
2023-05-13T05:01:10.445Z,100.00
2023-05-13T05:03:38.409Z,100.00
2023-05-13T05:06:06.564Z,100.00
2023-05-13T05:08:35.905Z,99.02
2023-05-13T05:11:03.749Z,96.12
2023-05-13T05:13:31.567Z,94.18
2023-05-13T05:15:59.620Z,90.49
2023-05-13T05:18:27.593Z,86.56
2023-05-13T05:20:55.672Z,84.16
2023-05-13T05:23:23.802Z,72.72
2023-05-13T05:26:00.850Z,71.78
2023-05-13T05:28:36.697Z,73.87
2023-05-13T05:31:05.388Z,73.74
2023-05-13T05:33:33.309Z,74.38
2023-05-13T05:36:01.215Z,72.09
2023-05-13T05:38:29.345Z,69.90
2023-05-13T05:40:58.620Z,65.78
2023-05-13T05:43:26.678Z,66.93
2023-05-13T05:45:54.599Z,66.55
2023-05-13T05:48:22.508Z,61.44
2023-05-13T05:50:50.527Z,60.78
2023-05-13T05:53:18.410Z,60.82
2023-05-13T05:55:46.347Z,61.53
2023-05-13T05:58:17.886Z,62.69
2023-05-13T06:00:45.792Z,62.69
2023-05-13T06:03:13.920Z,65.91
2023-05-13T06:05:41.993Z,67.03
2023-05-13T06:08:09.803Z,64.22
2023-05-13T06:10:38.591Z,65.70
2023-05-13T06:13:06.602Z,68.25
2023-05-13T06:15:36.151Z,67.74
2023-05-13T06:18:05.757Z,66.68
2023-05-13T06:20:33.924Z,67.22
2023-05-13T06:23:01.950Z,66.42
2023-05-13T06:25:29.911Z,66.55
2023-05-13T06:27:57.804Z,66.88
2023-05-13T06:30:25.802Z,69.07
2023-05-13T06:33:01.727Z,67.62
2023-05-13T06:35:30.514Z,69.39
2023-05-13T06:37:58.454Z,68.07
2023-05-13T06:40:26.309Z,69.82
2023-05-13T06:42:54.196Z,69.82
2023-05-13T06:45:23.601Z,72.50
2023-05-13T06:47:51.780Z,73.27
2023-05-13T06:50:21.488Z,72.43
2023-05-13T06:52:49.632Z,72.34
2023-05-13T06:55:18.996Z,71.50
2023-05-13T06:57:47.379Z,70.88
2023-05-13T07:00:16.157Z,69.42
2023-05-13T07:02:44.086Z,70.04
2023-05-13T07:05:12.669Z,68.99
2023-05-13T07:07:43.399Z,68.07
2023-05-13T07:10:12.076Z,66.84
2023-05-13T07:12:39.972Z,68.01
2023-05-13T07:15:08.889Z,65.85
2023-05-13T07:17:36.943Z,65.68
2023-05-13T07:20:05.310Z,64.24
2023-05-13T07:22:33.226Z,64.86
2023-05-13T07:25:02.593Z,65.83
2023-05-13T07:27:30.643Z,67.68
2023-05-13T07:29:58.979Z,68.90
2023-05-13T07:32:27.365Z,70.22
2023-05-13T07:34:55.376Z,72.67
2023-05-13T07:37:23.528Z,71.36
2023-05-13T07:39:51.527Z,71.67
2023-05-13T07:42:20.759Z,69.95
2023-05-13T07:44:48.636Z,69.33
2023-05-13T07:47:16.667Z,69.67
2023-05-13T07:49:44.563Z,71.19
2023-05-13T07:52:12.428Z,71.24
2023-05-13T07:54:40.518Z,67.91
2023-05-13T07:57:08.407Z,65.46
2023-05-13T07:59:37.725Z,65.92
2023-05-13T08:02:05.934Z,67.29
2023-05-13T08:04:33.775Z,72.47
2023-05-13T08:07:02.211Z,73.19
2023-05-13T08:09:30.254Z,72.95
2023-05-13T08:11:58.235Z,74.57
2023-05-13T08:14:26.115Z,75.78
2023-05-13T08:16:55.554Z,75.90
2023-05-13T08:19:23.529Z,73.36
2023-05-13T08:21:51.536Z,75.07
2023-05-13T08:24:19.461Z,73.08
2023-05-13T08:26:47.333Z,69.46
2023-05-13T08:29:15.868Z,68.93
2023-05-13T08:31:43.923Z,69.29
2023-05-13T08:34:13.971Z,67.94
2023-05-13T08:36:41.893Z,66.72
2023-05-13T08:39:09.833Z,67.27
2023-05-13T08:41:39.109Z,67.67
2023-05-13T08:44:08.189Z,70.08
2023-05-13T08:46:39.111Z,71.93
2023-05-13T08:49:07.029Z,72.13
2023-05-13T08:51:36.443Z,74.87
2023-05-13T08:54:05.002Z,73.21
2023-05-13T08:56:32.953Z,73.31
2023-05-13T08:59:00.910Z,72.17
2023-05-13T09:01:30.141Z,70.75
2023-05-13T09:04:00.176Z,71.72
2023-05-13T09:06:28.685Z,70.53
2023-05-13T09:08:58.480Z,71.25
2023-05-13T09:11:26.911Z,74.30
2023-05-13T09:13:59.707Z,77.69
2023-05-13T09:16:29.616Z,79.42
2023-05-13T09:19:00.018Z,76.68
2023-05-13T09:21:29.340Z,74.96
2023-05-13T09:24:08.477Z,76.01
2023-05-13T09:26:36.875Z,75.70
2023-05-13T09:29:24.532Z,76.67
2023-05-13T09:31:54.122Z,74.96
2023-05-13T09:34:30.197Z,74.70
2023-05-13T09:37:02.671Z,78.10
2023-05-13T09:39:33.967Z,78.56
2023-05-13T09:42:04.919Z,78.98
2023-05-13T09:44:33.580Z,80.56
2023-05-13T09:47:02.590Z,82.47
2023-05-13T09:49:32.597Z,78.15
2023-05-13T09:52:00.449Z,73.90
2023-05-13T09:54:37.320Z,73.11
2023-05-13T09:57:06.433Z,72.47
2023-05-13T09:59:34.448Z,72.75
2023-05-13T10:02:05.473Z,74.92
2023-05-13T10:04:33.595Z,75.17
2023-05-13T10:07:04.527Z,74.51
2023-05-13T10:09:37.575Z,75.36
2023-05-13T10:12:08.889Z,77.32
2023-05-13T10:14:38.116Z,78.16
2023-05-13T10:17:07.438Z,76.10
2023-05-13T10:19:35.900Z,75.40
2023-05-13T10:22:04.768Z,74.76
2023-05-13T10:24:33.649Z,73.52
2023-05-13T10:27:04.932Z,73.04
2023-05-13T10:29:33.160Z,73.70
2023-05-13T10:32:02.786Z,71.46
2023-05-13T10:34:34.380Z,71.80
2023-05-13T10:37:19.939Z,69.31
2023-05-13T10:40:13.150Z,70.88
2023-05-13T10:42:44.172Z,67.16
2023-05-13T10:45:12.533Z,66.05
2023-05-13T10:47:40.608Z,66.14
2023-05-13T10:50:23.327Z,65.35
2023-05-13T10:52:52.353Z,67.13
2023-05-13T10:55:21.885Z,68.80
2023-05-13T10:58:11.056Z,69.97
2023-05-13T11:00:40.301Z,69.36
2023-05-13T11:03:13.729Z,69.79
2023-05-13T11:05:42.970Z,67.47
2023-05-13T11:08:11.878Z,66.78
2023-05-13T11:10:42.106Z,65.49
2023-05-13T11:13:25.551Z,66.23
2023-05-13T11:15:54.964Z,66.07
2023-05-13T11:18:31.533Z,66.17
2023-05-13T11:21:05.533Z,64.20
2023-05-13T11:23:35.935Z,67.01
2023-05-13T11:26:17.051Z,65.54
2023-05-13T11:29:06.883Z,63.27
2023-05-13T11:31:45.664Z,64.87
2023-05-13T11:34:15.418Z,61.39
2023-05-13T11:36:45.910Z,61.63
2023-05-13T11:39:16.295Z,60.37
2023-05-13T11:41:46.673Z,59.56
2023-05-13T11:44:17.634Z,56.65
2023-05-13T11:46:56.846Z,57.07
2023-05-13T11:49:32.477Z,57.10
2023-05-13T11:52:00.901Z,58.12
2023-05-13T11:54:29.253Z,58.75
2023-05-13T11:56:57.260Z,57.46
2023-05-13T11:59:31.149Z,57.14
2023-05-13T12:02:04.400Z,56.34
2023-05-13T12:04:32.398Z,55.37
2023-05-13T12:07:00.314Z,56.23
2023-05-13T12:09:28.127Z,56.72
2023-05-13T12:11:56.490Z,55.14
2023-05-13T12:14:27.882Z,56.05
2023-05-13T12:16:56.632Z,56.50
2023-05-13T12:19:24.703Z,55.57
2023-05-13T12:21:54.431Z,55.63
2023-05-13T12:24:23.326Z,55.56
2023-05-13T12:26:51.350Z,55.50
2023-05-13T12:29:19.257Z,54.14
2023-05-13T12:32:07.433Z,54.24
2023-05-13T12:34:36.049Z,53.43
2023-05-13T12:37:13.985Z,52.13
2023-05-13T12:39:42.780Z,50.88
2023-05-13T12:42:17.465Z,50.11
2023-05-13T12:44:46.464Z,48.37
2023-05-13T12:47:19.965Z,48.46
2023-05-13T12:49:54.256Z,48.60
2023-05-13T12:52:22.788Z,48.58
2023-05-13T12:54:50.926Z,48.11
2023-05-13T12:57:19.086Z,48.02
2023-05-13T12:59:47.131Z,46.45
2023-05-13T13:02:16.319Z,46.36
2023-05-13T13:04:44.166Z,45.60
2023-05-13T13:07:14.788Z,45.34
2023-05-13T13:09:42.773Z,45.25
2023-05-13T13:12:10.690Z,45.18
2023-05-13T13:14:38.593Z,44.77
2023-05-13T13:17:07.190Z,44.98
2023-05-13T13:19:36.482Z,44.43
2023-05-13T13:22:04.395Z,44.40
2023-05-13T13:24:32.340Z,44.65
2023-05-13T13:27:00.279Z,44.43
2023-05-13T13:29:28.267Z,44.08
2023-05-13T13:31:56.511Z,44.35
2023-05-13T13:34:24.393Z,43.56
2023-05-13T13:36:53.736Z,43.31
2023-05-13T13:39:22.584Z,43.13
2023-05-13T13:41:50.522Z,42.40
2023-05-13T13:44:18.745Z,42.08
2023-05-13T13:46:46.688Z,41.94
2023-05-13T13:49:23.232Z,41.62
2023-05-13T13:51:53.459Z,40.97
2023-05-13T13:54:21.829Z,41.88
2023-05-13T13:56:49.972Z,42.19
2023-05-13T13:59:19.387Z,42.33
2023-05-13T14:01:47.569Z,42.95
2023-05-13T14:04:17.324Z,43.05
2023-05-13T14:06:46.362Z,43.45
2023-05-13T14:09:16.041Z,42.71
2023-05-13T14:11:43.885Z,42.23
2023-05-13T14:14:11.869Z,42.14
2023-05-13T14:16:39.780Z,42.27
2023-05-13T14:19:07.800Z,41.87
2023-05-13T14:21:36.285Z,41.86
2023-05-13T14:24:04.272Z,42.13
2023-05-13T14:26:33.520Z,41.96
2023-05-13T14:29:01.501Z,42.33
2023-05-13T14:31:29.905Z,42.70
2023-05-13T14:33:58.373Z,42.36
2023-05-13T14:36:27.659Z,41.85
2023-05-13T14:38:55.747Z,42.21
2023-05-13T14:41:25.578Z,42.54
2023-05-13T14:43:54.793Z,43.22
2023-05-13T14:46:23.164Z,43.77
2023-05-13T14:48:50.992Z,44.46
2023-05-13T14:51:18.864Z,44.63
2023-05-13T14:53:46.953Z,44.78
2023-05-13T14:56:14.829Z,44.14
2023-05-13T14:58:42.913Z,44.22
2023-05-13T15:01:12.502Z,44.04
2023-05-13T15:03:40.422Z,44.37
2023-05-13T15:06:09.125Z,44.72
2023-05-13T15:08:37.859Z,44.11
2023-05-13T15:11:06.058Z,43.80
2023-05-13T15:13:35.371Z,44.52
2023-05-13T15:16:03.713Z,45.36
2023-05-13T15:18:33.187Z,45.41
2023-05-13T15:21:01.131Z,46.69
2023-05-13T15:23:29.167Z,48.80
2023-05-13T15:25:57.240Z,50.62
2023-05-13T15:28:25.204Z,51.28
2023-05-13T15:30:53.387Z,52.20
2023-05-13T15:33:21.617Z,52.22
2023-05-13T15:35:51.054Z,51.73
2023-05-13T15:38:19.096Z,51.68
2023-05-13T15:40:47.430Z,51.80
2023-05-13T15:43:15.301Z,51.98
2023-05-13T15:45:43.328Z,51.23
2023-05-13T15:48:11.285Z,50.95
2023-05-13T15:50:39.233Z,50.40
2023-05-13T15:53:08.671Z,51.02
2023-05-13T15:55:37.496Z,51.75
2023-05-13T15:58:05.371Z,52.45
2023-05-13T16:00:33.422Z,52.97
2023-05-13T16:03:01.457Z,53.92
2023-05-13T16:05:29.851Z,53.65
2023-05-13T16:07:57.950Z,54.80
2023-05-13T16:10:27.413Z,54.68
2023-05-13T16:12:55.298Z,54.73
2023-05-13T16:15:23.234Z,54.52
2023-05-13T16:17:51.127Z,54.69
2023-05-13T16:20:18.980Z,55.02
2023-05-13T16:22:47.018Z,54.82
2023-05-13T16:25:14.838Z,54.75
2023-05-13T16:27:44.102Z,55.32
2023-05-13T16:30:12.970Z,55.77
2023-05-13T16:32:41.095Z,55.98
2023-05-13T16:35:11.703Z,56.24
2023-05-13T16:37:39.689Z,56.12
2023-05-13T16:40:08.825Z,56.43
2023-05-13T16:42:36.765Z,55.80
2023-05-13T16:45:07.308Z,55.76
2023-05-13T16:47:35.193Z,56.65
2023-05-13T16:50:03.830Z,56.24
2023-05-13T16:52:34.154Z,57.00
2023-05-13T16:55:02.107Z,58.28
2023-05-13T16:57:30.088Z,60.14
2023-05-13T16:59:57.984Z,62.66
2023-05-13T17:02:27.583Z,63.32
2023-05-13T17:04:55.474Z,60.34
2023-05-13T17:07:23.410Z,59.53
2023-05-13T17:09:51.311Z,60.35
2023-05-13T17:12:19.274Z,60.19
2023-05-13T17:14:47.325Z,60.17
2023-05-13T17:17:15.266Z,61.26
2023-05-13T17:19:44.591Z,61.40
2023-05-13T17:22:12.577Z,61.69
2023-05-13T17:24:40.708Z,62.65
2023-05-13T17:27:08.845Z,63.82
2023-05-13T17:29:36.923Z,64.37
2023-05-13T17:32:05.202Z,65.43
2023-05-13T17:34:33.048Z,65.60
2023-05-13T17:37:02.313Z,66.51
2023-05-13T17:39:30.202Z,66.50
2023-05-13T17:41:58.011Z,67.10
2023-05-13T17:44:25.917Z,68.43
2023-05-13T17:46:53.808Z,69.11
2023-05-13T17:49:21.680Z,70.24
2023-05-13T17:51:49.623Z,71.39
2023-05-13T17:54:18.925Z,71.18
2023-05-13T17:56:46.754Z,72.00
2023-05-13T17:59:14.616Z,71.21
2023-05-13T18:01:43.733Z,71.62
2023-05-13T18:04:11.612Z,72.03
2023-05-13T18:06:39.558Z,72.47
2023-05-13T18:09:07.440Z,71.87
2023-05-13T18:11:39.405Z,72.28
2023-05-13T18:14:07.981Z,72.63
2023-05-13T18:16:35.959Z,73.06
2023-05-13T18:19:04.041Z,73.71
2023-05-13T18:21:31.946Z,73.63
2023-05-13T18:23:59.957Z,74.31
2023-05-13T18:26:27.972Z,75.01
2023-05-13T18:28:57.154Z,74.98
2023-05-13T18:31:26.062Z,75.38
2023-05-13T18:33:54.067Z,74.41
2023-05-13T18:36:21.874Z,73.96
2023-05-13T18:38:49.901Z,74.36
2023-05-13T18:41:18.128Z,75.08
2023-05-13T18:43:46.144Z,75.94
2023-05-13T18:46:15.560Z,76.42
2023-05-13T18:48:43.497Z,76.95
2023-05-13T18:51:11.585Z,77.40
2023-05-13T18:53:39.655Z,79.15
2023-05-13T18:56:07.584Z,78.30
2023-05-13T18:58:35.513Z,78.81
2023-05-13T19:01:03.741Z,79.08
2023-05-13T19:03:33.095Z,79.61
2023-05-13T19:06:01.056Z,78.51
2023-05-13T19:08:28.947Z,78.71
2023-05-13T19:10:57.589Z,78.29
2023-05-13T19:13:30.688Z,78.25
2023-05-13T19:16:07.747Z,77.44
2023-05-13T19:18:37.020Z,77.44
2023-05-13T19:21:05.013Z,78.69
2023-05-13T19:23:33.097Z,79.34
2023-05-13T19:26:01.149Z,80.34
2023-05-13T19:28:29.579Z,82.26
2023-05-13T19:30:57.532Z,83.31
2023-05-13T19:33:25.425Z,84.04
2023-05-13T19:35:54.655Z,85.38
2023-05-13T19:38:22.769Z,86.54
2023-05-13T19:40:53.890Z,87.74
2023-05-13T19:43:21.843Z,88.51
2023-05-13T19:45:49.925Z,88.71
2023-05-13T19:48:17.804Z,87.78
2023-05-13T19:50:45.630Z,87.74
2023-05-13T19:53:15.111Z,87.79
2023-05-13T19:55:42.957Z,88.27
2023-05-13T19:58:10.764Z,88.87
2023-05-13T20:00:38.683Z,89.39
2023-05-13T20:03:06.672Z,89.15
2023-05-13T20:05:34.687Z,89.29
2023-05-13T20:08:02.570Z,89.12
2023-05-13T20:10:31.969Z,89.15
2023-05-13T20:13:01.694Z,88.16
2023-05-13T20:15:29.811Z,87.52
2023-05-13T20:17:57.846Z,87.25
2023-05-13T20:20:25.844Z,86.86
2023-05-13T20:22:53.878Z,86.58
2023-05-13T20:25:21.761Z,85.98
2023-05-13T20:27:51.338Z,86.51
2023-05-13T20:30:21.017Z,87.01
2023-05-13T20:32:49.350Z,86.60
2023-05-13T20:35:17.347Z,87.08
2023-05-13T20:37:45.230Z,87.17
2023-05-13T20:40:13.673Z,87.57
2023-05-13T20:42:41.522Z,88.77
2023-05-13T20:45:11.551Z,88.32
2023-05-13T20:47:39.396Z,88.95
2023-05-13T20:50:08.435Z,88.25
2023-05-13T20:52:36.462Z,88.87
2023-05-13T20:55:04.485Z,88.77
2023-05-13T20:57:32.374Z,88.69
2023-05-13T21:00:00.329Z,89.52
2023-05-13T21:02:29.661Z,89.62
2023-05-13T21:04:57.640Z,90.61
2023-05-13T21:07:25.577Z,91.66
2023-05-13T21:09:53.428Z,92.90
2023-05-13T21:12:21.272Z,93.68
2023-05-13T21:14:49.172Z,92.75
2023-05-13T21:17:21.270Z,92.68
2023-05-13T21:19:50.761Z,93.67
2023-05-13T21:22:18.904Z,94.42
2023-05-13T21:24:47.142Z,94.57
2023-05-13T21:27:15.034Z,95.04
2023-05-13T21:29:42.932Z,96.21
2023-05-13T21:32:12.055Z,96.17
2023-05-13T21:34:39.975Z,97.62
2023-05-13T21:37:09.228Z,97.13
2023-05-13T21:39:37.103Z,97.23
2023-05-13T21:42:05.512Z,97.46
2023-05-13T21:44:33.334Z,96.58
2023-05-13T21:47:01.198Z,96.92
2023-05-13T21:49:29.095Z,97.37
2023-05-13T21:51:57.006Z,97.41
2023-05-13T21:54:26.294Z,97.80
2023-05-13T21:56:54.304Z,97.47
2023-05-13T21:59:22.167Z,97.48
2023-05-13T22:01:49.994Z,97.27
2023-05-13T22:04:17.985Z,96.78
2023-05-13T22:06:46.002Z,96.74
2023-05-13T22:09:13.894Z,96.25
2023-05-13T22:11:43.127Z,96.17
2023-05-13T22:14:10.946Z,95.81
2023-05-13T22:16:38.947Z,95.12
2023-05-13T22:19:06.953Z,95.07
2023-05-13T22:21:34.875Z,94.98
2023-05-13T22:24:04.932Z,94.67
2023-05-13T22:26:32.831Z,94.88
2023-05-13T22:29:02.073Z,94.66
2023-05-13T22:31:30.029Z,94.33
2023-05-13T22:33:57.974Z,95.06
2023-05-13T22:36:25.808Z,93.94
2023-05-13T22:38:53.853Z,92.54
2023-05-13T22:41:23.802Z,91.70
2023-05-13T22:43:51.705Z,90.07
2023-05-13T22:46:21.092Z,90.06
2023-05-13T22:48:48.922Z,89.40
2023-05-13T22:51:16.752Z,90.25
2023-05-13T22:53:44.617Z,90.37
2023-05-13T22:56:12.441Z,90.08
2023-05-13T22:58:40.358Z,90.28
2023-05-13T23:01:08.271Z,90.05
2023-05-13T23:03:37.561Z,89.20
2023-05-13T23:06:05.680Z,88.43
2023-05-13T23:08:33.562Z,88.44
2023-05-13T23:11:01.383Z,88.90
2023-05-13T23:13:29.301Z,88.51
2023-05-13T23:15:57.258Z,88.80
2023-05-13T23:18:25.692Z,88.82
2023-05-13T23:20:56.156Z,88.74
2023-05-13T23:23:24.602Z,89.53
2023-05-13T23:25:52.547Z,90.22
2023-05-13T23:28:20.508Z,90.54
2023-05-13T23:30:48.400Z,89.88
2023-05-13T23:33:16.428Z,88.01
2023-05-13T23:35:44.246Z,87.70
2023-05-13T23:38:13.502Z,88.22
2023-05-13T23:40:41.361Z,88.53
2023-05-13T23:43:09.224Z,87.21
2023-05-13T23:45:37.226Z,86.20
2023-05-13T23:48:05.525Z,87.22
2023-05-13T23:50:33.704Z,87.63
2023-05-13T23:53:01.591Z,89.03
2023-05-13T23:55:30.793Z,89.35
2023-05-13T23:57:58.650Z,89.40
